sensor_id;sensor_type;location;lat;lon;timestamp;P1;durP1;ratioP1;P2;durP2;ratioP2
25359;SDS011;13311;51.386;0.016;2023-08-06T00:04:30;2.63;;;1.92;;
25359;SDS011;13311;51.386;0.016;2023-08-06T00:09:31;3.05;;;1.90;;
25359;SDS011;13311;51.386;0.016;2023-08-06T00:14:32;4.43;;;1.50;;
25359;SDS011;13311;51.386;0.016;2023-08-06T00:19:32;1.73;;;1.23;;
25359;SDS011;13311;51.386;0.016;2023-08-06T00:24:33;4.07;;;1.73;;
25359;SDS011;13311;51.386;0.016;2023-08-06T00:29:35;3.15;;;1.42;;
25359;SDS011;13311;51.386;0.016;2023-08-06T00:34:35;3.47;;;1.85;;
25359;SDS011;13311;51.386;0.016;2023-08-06T00:39:36;3.08;;;1.52;;
25359;SDS011;13311;51.386;0.016;2023-08-06T00:44:37;2.00;;;1.20;;
25359;SDS011;13311;51.386;0.016;2023-08-06T00:49:39;4.97;;;1.70;;
25359;SDS011;13311;51.386;0.016;2023-08-06T00:54:40;3.15;;;1.65;;
25359;SDS011;13311;51.386;0.016;2023-08-06T00:59:41;5.82;;;1.70;;
25359;SDS011;13311;51.386;0.016;2023-08-06T01:04:41;2.75;;;1.73;;
25359;SDS011;13311;51.386;0.016;2023-08-06T01:09:48;5.57;;;1.98;;
25359;SDS011;13311;51.386;0.016;2023-08-06T01:15:01;3.37;;;1.63;;
25359;SDS011;13311;51.386;0.016;2023-08-06T01:20:06;4.55;;;1.80;;
25359;SDS011;13311;51.386;0.016;2023-08-06T01:25:07;3.70;;;1.90;;
25359;SDS011;13311;51.386;0.016;2023-08-06T01:30:18;4.97;;;2.10;;
25359;SDS011;13311;51.386;0.016;2023-08-06T01:35:30;4.35;;;1.80;;
25359;SDS011;13311;51.386;0.016;2023-08-06T01:40:32;3.97;;;2.30;;
25359;SDS011;13311;51.386;0.016;2023-08-06T01:45:34;4.43;;;2.67;;
25359;SDS011;13311;51.386;0.016;2023-08-06T01:50:35;2.88;;;1.90;;
25359;SDS011;13311;51.386;0.016;2023-08-06T01:55:35;4.40;;;2.13;;
25359;SDS011;13311;51.386;0.016;2023-08-06T02:00:36;3.90;;;2.03;;
25359;SDS011;13311;51.386;0.016;2023-08-06T02:05:37;4.78;;;2.47;;
25359;SDS011;13311;51.386;0.016;2023-08-06T02:10:37;6.15;;;3.05;;
25359;SDS011;13311;51.386;0.016;2023-08-06T02:15:42;3.78;;;2.08;;
25359;SDS011;13311;51.386;0.016;2023-08-06T02:20:55;5.25;;;2.53;;
25359;SDS011;13311;51.386;0.016;2023-08-06T02:26:03;6.18;;;2.47;;
25359;SDS011;13311;51.386;0.016;2023-08-06T02:31:04;4.93;;;2.38;;
25359;SDS011;13311;51.386;0.016;2023-08-06T02:36:06;4.30;;;2.42;;
25359;SDS011;13311;51.386;0.016;2023-08-06T02:41:07;5.72;;;2.88;;
25359;SDS011;13311;51.386;0.016;2023-08-06T02:46:08;4.63;;;2.53;;
25359;SDS011;13311;51.386;0.016;2023-08-06T02:51:08;7.47;;;2.30;;
25359;SDS011;13311;51.386;0.016;2023-08-06T02:56:09;5.13;;;2.63;;
25359;SDS011;13311;51.386;0.016;2023-08-06T03:01:10;4.88;;;2.50;;
25359;SDS011;13311;51.386;0.016;2023-08-06T03:06:11;2.55;;;2.10;;
25359;SDS011;13311;51.386;0.016;2023-08-06T03:11:11;7.60;;;2.90;;
25359;SDS011;13311;51.386;0.016;2023-08-06T03:16:12;4.03;;;2.50;;
25359;SDS011;13311;51.386;0.016;2023-08-06T03:21:13;4.53;;;2.70;;
25359;SDS011;13311;51.386;0.016;2023-08-06T03:26:14;4.47;;;2.20;;
25359;SDS011;13311;51.386;0.016;2023-08-06T03:31:14;6.35;;;2.50;;
25359;SDS011;13311;51.386;0.016;2023-08-06T03:36:15;6.00;;;2.35;;
25359;SDS011;13311;51.386;0.016;2023-08-06T03:41:16;4.70;;;2.25;;
25359;SDS011;13311;51.386;0.016;2023-08-06T03:46:16;6.88;;;3.15;;
25359;SDS011;13311;51.386;0.016;2023-08-06T03:51:17;4.85;;;2.70;;
25359;SDS011;13311;51.386;0.016;2023-08-06T03:56:18;6.20;;;2.70;;
25359;SDS011;13311;51.386;0.016;2023-08-06T04:01:19;6.30;;;3.13;;
25359;SDS011;13311;51.386;0.016;2023-08-06T04:06:19;6.55;;;2.63;;
25359;SDS011;13311;51.386;0.016;2023-08-06T04:11:20;5.53;;;2.50;;
25359;SDS011;13311;51.386;0.016;2023-08-06T04:16:21;9.40;;;2.42;;
25359;SDS011;13311;51.386;0.016;2023-08-06T04:21:22;6.57;;;2.40;;
25359;SDS011;13311;51.386;0.016;2023-08-06T04:26:22;12.07;;;3.20;;
25359;SDS011;13311;51.386;0.016;2023-08-06T04:31:23;5.68;;;2.47;;
25359;SDS011;13311;51.386;0.016;2023-08-06T04:36:24;4.43;;;2.53;;
25359;SDS011;13311;51.386;0.016;2023-08-06T04:41:24;3.58;;;2.60;;
25359;SDS011;13311;51.386;0.016;2023-08-06T04:46:25;4.32;;;2.38;;
25359;SDS011;13311;51.386;0.016;2023-08-06T04:51:26;5.30;;;2.75;;
25359;SDS011;13311;51.386;0.016;2023-08-06T04:56:26;4.18;;;2.72;;
25359;SDS011;13311;51.386;0.016;2023-08-06T05:01:27;6.38;;;3.33;;
25359;SDS011;13311;51.386;0.016;2023-08-06T05:06:28;5.63;;;3.30;;
25359;SDS011;13311;51.386;0.016;2023-08-06T05:11:29;6.55;;;2.80;;
25359;SDS011;13311;51.386;0.016;2023-08-06T05:16:30;4.43;;;2.25;;
25359;SDS011;13311;51.386;0.016;2023-08-06T05:21:30;6.80;;;2.38;;
25359;SDS011;13311;51.386;0.016;2023-08-06T05:26:31;6.53;;;2.70;;
25359;SDS011;13311;51.386;0.016;2023-08-06T05:31:32;5.30;;;2.60;;
25359;SDS011;13311;51.386;0.016;2023-08-06T05:36:33;6.05;;;2.80;;
25359;SDS011;13311;51.386;0.016;2023-08-06T05:41:33;3.90;;;2.33;;
25359;SDS011;13311;51.386;0.016;2023-08-06T05:46:34;6.03;;;2.78;;
25359;SDS011;13311;51.386;0.016;2023-08-06T05:51:35;3.95;;;2.35;;
25359;SDS011;13311;51.386;0.016;2023-08-06T05:56:35;4.35;;;2.25;;
25359;SDS011;13311;51.386;0.016;2023-08-06T06:01:36;3.95;;;2.40;;
25359;SDS011;13311;51.386;0.016;2023-08-06T06:06:36;3.53;;;2.20;;
25359;SDS011;13311;51.386;0.016;2023-08-06T06:11:37;4.32;;;2.03;;
25359;SDS011;13311;51.386;0.016;2023-08-06T06:16:38;2.85;;;1.80;;
25359;SDS011;13311;51.386;0.016;2023-08-06T06:21:38;3.60;;;2.22;;
25359;SDS011;13311;51.386;0.016;2023-08-06T06:26:39;4.22;;;2.25;;
25359;SDS011;13311;51.386;0.016;2023-08-06T06:31:40;4.03;;;2.13;;
25359;SDS011;13311;51.386;0.016;2023-08-06T06:36:41;3.45;;;2.13;;
25359;SDS011;13311;51.386;0.016;2023-08-06T06:41:41;1.77;;;1.27;;
25359;SDS011;13311;51.386;0.016;2023-08-06T06:46:42;2.25;;;1.83;;
25359;SDS011;13311;51.386;0.016;2023-08-06T06:51:43;4.20;;;2.08;;
25359;SDS011;13311;51.386;0.016;2023-08-06T06:56:44;2.20;;;1.77;;
25359;SDS011;13311;51.386;0.016;2023-08-06T07:01:44;2.33;;;1.65;;
25359;SDS011;13311;51.386;0.016;2023-08-06T07:06:45;3.45;;;1.80;;
25359;SDS011;13311;51.386;0.016;2023-08-06T07:11:46;5.35;;;1.90;;
25359;SDS011;13311;51.386;0.016;2023-08-06T07:16:46;4.70;;;1.92;;
25359;SDS011;13311;51.386;0.016;2023-08-06T07:21:47;2.83;;;1.80;;
25359;SDS011;13311;51.386;0.016;2023-08-06T07:26:48;4.38;;;1.60;;
25359;SDS011;13311;51.386;0.016;2023-08-06T07:31:48;4.53;;;1.95;;
25359;SDS011;13311;51.386;0.016;2023-08-06T07:36:50;3.85;;;1.98;;
25359;SDS011;13311;51.386;0.016;2023-08-06T07:41:51;1.70;;;1.60;;
25359;SDS011;13311;51.386;0.016;2023-08-06T07:46:51;2.58;;;1.95;;
25359;SDS011;13311;51.386;0.016;2023-08-06T07:51:52;2.60;;;1.38;;
25359;SDS011;13311;51.386;0.016;2023-08-06T07:56:53;3.22;;;1.77;;
25359;SDS011;13311;51.386;0.016;2023-08-06T08:01:53;1.50;;;1.23;;
25359;SDS011;13311;51.386;0.016;2023-08-06T08:06:54;2.47;;;1.67;;
25359;SDS011;13311;51.386;0.016;2023-08-06T08:11:55;9.23;;;2.53;;
25359;SDS011;13311;51.386;0.016;2023-08-06T08:16:55;32.33;;;4.97;;
25359;SDS011;13311;51.386;0.016;2023-08-06T08:21:56;20.50;;;4.78;;
25359;SDS011;13311;51.386;0.016;2023-08-06T08:26:57;8.75;;;2.17;;
25359;SDS011;13311;51.386;0.016;2023-08-06T08:31:57;3.05;;;1.83;;
25359;SDS011;13311;51.386;0.016;2023-08-06T08:36:58;6.50;;;1.90;;
25359;SDS011;13311;51.386;0.016;2023-08-06T08:41:59;6.30;;;2.30;;
25359;SDS011;13311;51.386;0.016;2023-08-06T08:47:01;8.27;;;2.78;;
25359;SDS011;13311;51.386;0.016;2023-08-06T08:52:02;5.93;;;1.95;;
25359;SDS011;13311;51.386;0.016;2023-08-06T08:57:07;13.70;;;3.63;;
25359;SDS011;13311;51.386;0.016;2023-08-06T09:02:09;4.43;;;2.05;;
25359;SDS011;13311;51.386;0.016;2023-08-06T09:07:13;5.63;;;1.80;;
25359;SDS011;13311;51.386;0.016;2023-08-06T09:12:18;2.60;;;1.55;;
25359;SDS011;13311;51.386;0.016;2023-08-06T09:17:19;9.48;;;2.60;;
25359;SDS011;13311;51.386;0.016;2023-08-06T09:22:20;5.72;;;1.95;;
25359;SDS011;13311;51.386;0.016;2023-08-06T09:27:20;14.27;;;2.83;;
25359;SDS011;13311;51.386;0.016;2023-08-06T09:32:23;4.05;;;1.33;;
25359;SDS011;13311;51.386;0.016;2023-08-06T09:37:24;2.15;;;1.23;;
25359;SDS011;13311;51.386;0.016;2023-08-06T09:42:38;4.75;;;1.45;;
25359;SDS011;13311;51.386;0.016;2023-08-06T09:47:45;3.92;;;1.40;;
25359;SDS011;13311;51.386;0.016;2023-08-06T09:52:48;5.35;;;1.60;;
25359;SDS011;13311;51.386;0.016;2023-08-06T09:57:52;4.28;;;1.50;;
25359;SDS011;13311;51.386;0.016;2023-08-06T10:02:53;2.88;;;1.33;;
25359;SDS011;13311;51.386;0.016;2023-08-06T10:07:59;2.58;;;1.60;;
25359;SDS011;13311;51.386;0.016;2023-08-06T10:13:02;3.60;;;1.55;;
25359;SDS011;13311;51.386;0.016;2023-08-06T10:18:04;3.33;;;1.40;;
25359;SDS011;13311;51.386;0.016;2023-08-06T10:23:06;3.10;;;1.58;;
25359;SDS011;13311;51.386;0.016;2023-08-06T10:28:08;5.45;;;1.92;;
25359;SDS011;13311;51.386;0.016;2023-08-06T10:33:10;2.60;;;1.35;;
25359;SDS011;13311;51.386;0.016;2023-08-06T10:38:12;1.85;;;1.00;;
25359;SDS011;13311;51.386;0.016;2023-08-06T10:43:25;2.20;;;1.58;;
25359;SDS011;13311;51.386;0.016;2023-08-06T10:48:40;3.50;;;1.55;;
25359;SDS011;13311;51.386;0.016;2023-08-06T10:53:43;1.85;;;1.60;;
25359;SDS011;13311;51.386;0.016;2023-08-06T10:58:46;3.55;;;1.67;;
25359;SDS011;13311;51.386;0.016;2023-08-06T11:03:48;2.47;;;1.10;;
25359;SDS011;13311;51.386;0.016;2023-08-06T11:08:51;4.03;;;1.77;;
25359;SDS011;13311;51.386;0.016;2023-08-06T11:13:53;4.95;;;2.05;;
25359;SDS011;13311;51.386;0.016;2023-08-06T11:18:54;3.08;;;1.73;;
25359;SDS011;13311;51.386;0.016;2023-08-06T11:23:56;4.60;;;2.30;;
25359;SDS011;13311;51.386;0.016;2023-08-06T11:28:57;4.03;;;1.63;;
25359;SDS011;13311;51.386;0.016;2023-08-06T11:33:58;3.15;;;1.67;;
25359;SDS011;13311;51.386;0.016;2023-08-06T11:38:59;2.35;;;1.60;;
25359;SDS011;13311;51.386;0.016;2023-08-06T11:44:05;2.33;;;1.67;;
25359;SDS011;13311;51.386;0.016;2023-08-06T11:49:06;2.20;;;1.25;;
25359;SDS011;13311;51.386;0.016;2023-08-06T11:54:06;3.17;;;1.67;;
25359;SDS011;13311;51.386;0.016;2023-08-06T11:59:08;1.67;;;1.30;;
25359;SDS011;13311;51.386;0.016;2023-08-06T12:04:08;2.47;;;1.50;;
25359;SDS011;13311;51.386;0.016;2023-08-06T12:09:09;2.28;;;1.15;;
25359;SDS011;13311;51.386;0.016;2023-08-06T12:14:10;2.25;;;1.40;;
25359;SDS011;13311;51.386;0.016;2023-08-06T12:19:11;2.53;;;1.30;;
25359;SDS011;13311;51.386;0.016;2023-08-06T12:24:12;2.08;;;1.30;;
25359;SDS011;13311;51.386;0.016;2023-08-06T12:29:12;1.58;;;1.27;;
25359;SDS011;13311;51.386;0.016;2023-08-06T12:34:13;1.52;;;1.35;;
25359;SDS011;13311;51.386;0.016;2023-08-06T12:39:14;1.50;;;1.20;;
25359;SDS011;13311;51.386;0.016;2023-08-06T12:44:15;1.42;;;1.08;;
25359;SDS011;13311;51.386;0.016;2023-08-06T12:49:16;1.73;;;1.35;;
25359;SDS011;13311;51.386;0.016;2023-08-06T12:54:17;1.70;;;1.30;;
25359;SDS011;13311;51.386;0.016;2023-08-06T12:59:18;1.77;;;1.20;;
25359;SDS011;13311;51.386;0.016;2023-08-06T13:04:19;2.03;;;1.40;;
25359;SDS011;13311;51.386;0.016;2023-08-06T13:09:20;1.52;;;1.20;;
25359;SDS011;13311;51.386;0.016;2023-08-06T13:14:21;1.75;;;1.10;;
25359;SDS011;13311;51.386;0.016;2023-08-06T13:19:22;2.85;;;1.60;;
25359;SDS011;13311;51.386;0.016;2023-08-06T13:24:22;1.25;;;1.00;;
25359;SDS011;13311;51.386;0.016;2023-08-06T13:29:24;1.83;;;1.00;;
25359;SDS011;13311;51.386;0.016;2023-08-06T13:34:25;2.50;;;1.38;;
25359;SDS011;13311;51.386;0.016;2023-08-06T13:39:26;1.30;;;1.20;;
25359;SDS011;13311;51.386;0.016;2023-08-06T13:44:27;1.60;;;1.50;;
25359;SDS011;13311;51.386;0.016;2023-08-06T13:49:28;2.90;;;1.23;;
25359;SDS011;13311;51.386;0.016;2023-08-06T13:54:29;1.17;;;0.90;;
25359;SDS011;13311;51.386;0.016;2023-08-06T13:59:30;0.95;;;0.80;;
25359;SDS011;13311;51.386;0.016;2023-08-06T14:04:31;1.48;;;0.90;;
25359;SDS011;13311;51.386;0.016;2023-08-06T14:09:31;1.67;;;1.10;;
25359;SDS011;13311;51.386;0.016;2023-08-06T14:14:34;1.55;;;1.33;;
25359;SDS011;13311;51.386;0.016;2023-08-06T14:19:34;1.40;;;1.17;;
25359;SDS011;13311;51.386;0.016;2023-08-06T14:24:35;2.65;;;0.88;;
25359;SDS011;13311;51.386;0.016;2023-08-06T14:29:36;1.58;;;0.90;;
25359;SDS011;13311;51.386;0.016;2023-08-06T14:34:37;1.13;;;0.90;;
25359;SDS011;13311;51.386;0.016;2023-08-06T14:39:37;1.15;;;0.77;;
25359;SDS011;13311;51.386;0.016;2023-08-06T14:44:38;1.58;;;1.20;;
25359;SDS011;13311;51.386;0.016;2023-08-06T14:49:39;1.83;;;0.82;;
25359;SDS011;13311;51.386;0.016;2023-08-06T14:54:40;0.75;;;0.63;;
25359;SDS011;13311;51.386;0.016;2023-08-06T14:59:40;0.90;;;0.63;;
25359;SDS011;13311;51.386;0.016;2023-08-06T15:04:41;2.28;;;0.85;;
25359;SDS011;13311;51.386;0.016;2023-08-06T15:09:42;1.27;;;0.90;;
25359;SDS011;13311;51.386;0.016;2023-08-06T15:14:42;0.88;;;0.77;;
25359;SDS011;13311;51.386;0.016;2023-08-06T15:19:43;3.42;;;0.95;;
25359;SDS011;13311;51.386;0.016;2023-08-06T15:24:44;1.73;;;0.80;;
25359;SDS011;13311;51.386;0.016;2023-08-06T15:29:45;1.50;;;0.95;;
25359;SDS011;13311;51.386;0.016;2023-08-06T15:34:46;1.67;;;1.00;;
25359;SDS011;13311;51.386;0.016;2023-08-06T15:39:47;1.40;;;0.82;;
25359;SDS011;13311;51.386;0.016;2023-08-06T15:44:48;1.08;;;0.98;;
25359;SDS011;13311;51.386;0.016;2023-08-06T15:49:48;1.83;;;0.85;;
25359;SDS011;13311;51.386;0.016;2023-08-06T15:54:49;0.80;;;0.70;;
25359;SDS011;13311;51.386;0.016;2023-08-06T15:59:50;0.65;;;0.65;;
25359;SDS011;13311;51.386;0.016;2023-08-06T16:04:50;1.15;;;0.85;;
25359;SDS011;13311;51.386;0.016;2023-08-06T16:09:54;0.93;;;0.65;;
25359;SDS011;13311;51.386;0.016;2023-08-06T16:14:55;0.93;;;0.75;;
25359;SDS011;13311;51.386;0.016;2023-08-06T16:19:55;0.88;;;0.60;;
25359;SDS011;13311;51.386;0.016;2023-08-06T16:24:56;0.70;;;0.70;;
25359;SDS011;13311;51.386;0.016;2023-08-06T16:29:57;1.45;;;0.80;;
25359;SDS011;13311;51.386;0.016;2023-08-06T16:34:58;0.70;;;0.45;;
25359;SDS011;13311;51.386;0.016;2023-08-06T16:39:58;1.05;;;0.52;;
25359;SDS011;13311;51.386;0.016;2023-08-06T16:44:59;2.28;;;0.77;;
25359;SDS011;13311;51.386;0.016;2023-08-06T16:50:00;2.15;;;1.20;;
25359;SDS011;13311;51.386;0.016;2023-08-06T16:55:00;1.35;;;0.60;;
25359;SDS011;13311;51.386;0.016;2023-08-06T17:00:01;1.48;;;1.10;;
25359;SDS011;13311;51.386;0.016;2023-08-06T17:05:03;0.68;;;0.60;;
25359;SDS011;13311;51.386;0.016;2023-08-06T17:10:04;1.63;;;0.80;;
25359;SDS011;13311;51.386;0.016;2023-08-06T17:15:06;1.60;;;0.95;;
25359;SDS011;13311;51.386;0.016;2023-08-06T17:20:07;2.13;;;0.55;;
25359;SDS011;13311;51.386;0.016;2023-08-06T17:25:08;1.45;;;0.93;;
25359;SDS011;13311;51.386;0.016;2023-08-06T17:30:09;0.85;;;0.63;;
25359;SDS011;13311;51.386;0.016;2023-08-06T17:35:10;1.80;;;1.00;;
25359;SDS011;13311;51.386;0.016;2023-08-06T17:40:11;1.40;;;0.77;;
25359;SDS011;13311;51.386;0.016;2023-08-06T17:45:11;1.05;;;0.80;;
25359;SDS011;13311;51.386;0.016;2023-08-06T17:50:12;1.58;;;1.25;;
25359;SDS011;13311;51.386;0.016;2023-08-06T17:55:13;0.98;;;0.57;;
25359;SDS011;13311;51.386;0.016;2023-08-06T18:00:14;1.63;;;0.95;;
25359;SDS011;13311;51.386;0.016;2023-08-06T18:05:14;1.48;;;1.08;;
25359;SDS011;13311;51.386;0.016;2023-08-06T18:10:15;1.20;;;0.60;;
25359;SDS011;13311;51.386;0.016;2023-08-06T18:15:16;0.77;;;0.60;;
25359;SDS011;13311;51.386;0.016;2023-08-06T18:20:16;1.52;;;0.90;;
25359;SDS011;13311;51.386;0.016;2023-08-06T18:25:17;2.03;;;1.08;;
25359;SDS011;13311;51.386;0.016;2023-08-06T18:30:18;0.85;;;0.70;;
25359;SDS011;13311;51.386;0.016;2023-08-06T18:35:19;1.85;;;1.15;;
25359;SDS011;13311;51.386;0.016;2023-08-06T18:40:19;1.75;;;0.82;;
25359;SDS011;13311;51.386;0.016;2023-08-06T18:45:20;0.70;;;0.65;;
25359;SDS011;13311;51.386;0.016;2023-08-06T18:50:21;2.05;;;1.08;;
25359;SDS011;13311;51.386;0.016;2023-08-06T18:55:22;1.23;;;0.77;;
25359;SDS011;13311;51.386;0.016;2023-08-06T19:00:22;1.17;;;0.80;;
25359;SDS011;13311;51.386;0.016;2023-08-06T19:05:26;1.75;;;1.00;;
25359;SDS011;13311;51.386;0.016;2023-08-06T19:10:26;1.60;;;1.00;;
25359;SDS011;13311;51.386;0.016;2023-08-06T19:15:27;2.03;;;1.05;;
25359;SDS011;13311;51.386;0.016;2023-08-06T19:20:28;0.90;;;0.75;;
25359;SDS011;13311;51.386;0.016;2023-08-06T19:25:29;1.42;;;1.25;;
25359;SDS011;13311;51.386;0.016;2023-08-06T19:30:32;0.60;;;0.60;;
25359;SDS011;13311;51.386;0.016;2023-08-06T19:35:44;2.25;;;1.08;;
25359;SDS011;13311;51.386;0.016;2023-08-06T19:40:50;1.80;;;1.10;;
25359;SDS011;13311;51.386;0.016;2023-08-06T19:46:03;3.58;;;1.27;;
25359;SDS011;13311;51.386;0.016;2023-08-06T19:51:04;1.80;;;1.20;;
25359;SDS011;13311;51.386;0.016;2023-08-06T19:56:05;1.83;;;1.05;;
25359;SDS011;13311;51.386;0.016;2023-08-06T20:01:06;2.17;;;1.55;;
25359;SDS011;13311;51.386;0.016;2023-08-06T20:06:09;3.20;;;1.35;;
25359;SDS011;13311;51.386;0.016;2023-08-06T20:11:10;1.38;;;1.00;;
25359;SDS011;13311;51.386;0.016;2023-08-06T20:16:11;1.98;;;1.00;;
25359;SDS011;13311;51.386;0.016;2023-08-06T20:21:12;3.53;;;1.90;;
25359;SDS011;13311;51.386;0.016;2023-08-06T20:26:13;10.45;;;7.45;;
25359;SDS011;13311;51.386;0.016;2023-08-06T20:31:14;3.53;;;2.38;;
25359;SDS011;13311;51.386;0.016;2023-08-06T20:36:14;2.83;;;1.90;;
25359;SDS011;13311;51.386;0.016;2023-08-06T20:41:15;1.83;;;1.55;;
25359;SDS011;13311;51.386;0.016;2023-08-06T20:46:16;3.72;;;2.40;;
25359;SDS011;13311;51.386;0.016;2023-08-06T20:51:16;2.70;;;1.38;;
25359;SDS011;13311;51.386;0.016;2023-08-06T20:56:17;2.30;;;1.83;;
25359;SDS011;13311;51.386;0.016;2023-08-06T21:01:18;1.52;;;1.40;;
25359;SDS011;13311;51.386;0.016;2023-08-06T21:06:19;2.63;;;1.30;;
25359;SDS011;13311;51.386;0.016;2023-08-06T21:11:19;2.20;;;1.38;;
25359;SDS011;13311;51.386;0.016;2023-08-06T21:16:20;2.65;;;2.08;;
25359;SDS011;13311;51.386;0.016;2023-08-06T21:21:20;2.25;;;1.65;;
25359;SDS011;13311;51.386;0.016;2023-08-06T21:26:21;3.28;;;1.73;;
25359;SDS011;13311;51.386;0.016;2023-08-06T21:31:22;2.08;;;1.67;;
25359;SDS011;13311;51.386;0.016;2023-08-06T21:36:23;4.68;;;1.77;;
25359;SDS011;13311;51.386;0.016;2023-08-06T21:41:24;3.65;;;2.13;;
25359;SDS011;13311;51.386;0.016;2023-08-06T21:46:25;2.75;;;1.88;;
25359;SDS011;13311;51.386;0.016;2023-08-06T21:51:26;2.13;;;1.70;;
25359;SDS011;13311;51.386;0.016;2023-08-06T21:56:27;3.40;;;2.15;;
25359;SDS011;13311;51.386;0.016;2023-08-06T22:01:28;3.03;;;1.80;;
25359;SDS011;13311;51.386;0.016;2023-08-06T22:06:28;2.42;;;1.70;;
25359;SDS011;13311;51.386;0.016;2023-08-06T22:11:29;2.05;;;1.58;;
25359;SDS011;13311;51.386;0.016;2023-08-06T22:16:30;2.70;;;1.80;;
25359;SDS011;13311;51.386;0.016;2023-08-06T22:21:30;4.10;;;2.83;;
25359;SDS011;13311;51.386;0.016;2023-08-06T22:26:31;9.57;;;5.53;;
25359;SDS011;13311;51.386;0.016;2023-08-06T22:31:32;10.98;;;5.43;;
25359;SDS011;13311;51.386;0.016;2023-08-06T22:36:33;6.90;;;4.13;;
25359;SDS011;13311;51.386;0.016;2023-08-06T22:41:33;9.18;;;5.43;;
25359;SDS011;13311;51.386;0.016;2023-08-06T22:46:34;8.00;;;4.25;;
25359;SDS011;13311;51.386;0.016;2023-08-06T22:51:35;9.27;;;5.90;;
25359;SDS011;13311;51.386;0.016;2023-08-06T22:56:36;8.43;;;6.18;;
25359;SDS011;13311;51.386;0.016;2023-08-06T23:01:36;6.32;;;3.20;;
25359;SDS011;13311;51.386;0.016;2023-08-06T23:06:37;5.90;;;3.40;;
25359;SDS011;13311;51.386;0.016;2023-08-06T23:11:38;3.92;;;2.53;;
25359;SDS011;13311;51.386;0.016;2023-08-06T23:16:38;4.88;;;2.85;;
25359;SDS011;13311;51.386;0.016;2023-08-06T23:21:39;3.22;;;2.45;;
25359;SDS011;13311;51.386;0.016;2023-08-06T23:26:40;6.03;;;2.63;;
25359;SDS011;13311;51.386;0.016;2023-08-06T23:31:41;4.60;;;2.95;;
25359;SDS011;13311;51.386;0.016;2023-08-06T23:36:41;4.18;;;2.40;;
25359;SDS011;13311;51.386;0.016;2023-08-06T23:41:42;3.92;;;2.30;;
25359;SDS011;13311;51.386;0.016;2023-08-06T23:46:43;3.88;;;1.88;;
25359;SDS011;13311;51.386;0.016;2023-08-06T23:51:43;3.47;;;1.90;;
25359;SDS011;13311;51.386;0.016;2023-08-06T23:56:46;4.30;;;1.55;;
